Time;durP1;ratioP1;P1;durP2;ratioP2;P2;SDS_P1;SDS_P2;PMS_P1;PMS_P2;Temp;Humidity;BMP_temperature;BMP_pressure;BME280_temperature;BME280_humidity;BME280_pressure;Samples;Min_cycle;Max_cycle;Signal;HPM_P1;HPM_P2
2023/09/24 01:05:27;;;;;;;10.50;10.20;;;9.50;99.90;;;;;;6271919;22;20205;-85
2023/09/24 01:09:12;;;;;;;10.67;10.37;;;9.50;99.90;;;;;;6079663;23;20202;-85
2023/09/24 01:59:17;;;;;;;10.10;9.80;;;8.80;99.90;;;;;;5808349;22;20206;-79
2023/09/24 02:01:45;;;;;;;10.10;9.80;;;8.80;99.90;;;;;;6235511;23;20217;-82
2023/09/24 02:04:12;;;;;;;10.43;10.13;;;8.80;99.90;;;;;;6238447;23;20195;-82
2023/09/24 02:06:41;;;;;;;10.30;10.00;;;8.80;99.90;;;;;;6238941;23;20206;-83
2023/09/24 02:09:08;;;;;;;10.30;10.00;;;8.80;99.90;;;;;;6239245;23;20249;-82
2023/09/24 02:11:35;;;;;;;10.33;10.03;;;8.70;99.90;;;;;;6237690;23;20210;-83
2023/09/24 02:14:03;;;;;;;10.43;10.13;;;8.70;99.90;;;;;;6238423;23;20203;-83
2023/09/24 02:16:33;;;;;;;10.60;10.30;;;8.70;99.90;;;;;;6238673;23;20198;-83
2023/09/24 02:19:00;;;;;;;10.40;10.10;;;8.60;99.90;;;;;;6238169;23;20221;-82
2023/09/24 02:21:29;;;;;;;10.17;9.87;;;8.60;99.90;;;;;;6238171;23;20193;-83
2023/09/24 02:23:57;;;;;;;10.20;9.90;;;8.70;99.90;;;;;;6242515;23;20286;-83
2023/09/24 02:26:24;;;;;;;10.30;10.00;;;8.60;99.90;;;;;;6240632;23;20187;-83
2023/09/24 02:28:51;;;;;;;10.27;9.97;;;8.60;99.90;;;;;;6238960;23;20202;-83
2023/09/24 02:31:18;;;;;;;10.20;9.90;;;8.60;99.90;;;;;;6239505;23;20203;-83
2023/09/24 02:33:47;;;;;;;10.10;9.80;;;8.60;99.90;;;;;;6239134;23;20206;-83
2023/09/24 02:36:14;;;;;;;10.30;10.00;;;8.60;99.90;;;;;;6240827;23;20247;-83
2023/09/24 02:38:41;;;;;;;10.10;9.80;;;8.60;99.90;;;;;;6240440;23;20207;-83
2023/09/24 02:41:08;;;;;;;10.27;9.97;;;8.60;99.90;;;;;;6239715;23;20203;-83
2023/09/24 02:43:37;;;;;;;10.27;9.97;;;8.50;99.90;;;;;;6238460;23;20245;-83
2023/09/24 02:46:05;;;;;;;10.43;10.13;;;8.40;99.90;;;;;;6239553;23;20206;-83
2023/09/24 02:48:35;;;;;;;10.40;10.10;;;8.40;99.90;;;;;;6239010;23;20195;-83
2023/09/24 02:51:10;;;;;;;10.50;10.20;;;8.30;99.90;;;;;;6239377;23;20203;-83
2023/09/24 02:53:37;;;;;;;10.30;10.00;;;8.30;99.90;;;;;;6238337;23;20190;-83
2023/09/24 02:56:05;;;;;;;10.67;10.37;;;8.30;99.90;;;;;;6237499;23;20202;-82
2023/09/24 02:58:32;;;;;;;10.50;10.20;;;8.30;99.90;;;;;;6237321;23;20196;-83
2023/09/24 03:01:00;;;;;;;10.50;10.20;;;8.30;99.90;;;;;;6237184;22;20199;-82
2023/09/24 03:03:28;;;;;;;10.40;10.10;;;8.30;99.90;;;;;;6236589;23;20187;-83
2023/09/24 03:05:55;;;;;;;10.60;10.30;;;8.20;99.90;;;;;;6237411;23;20198;-83
2023/09/24 03:08:24;;;;;;;10.50;10.20;;;8.30;99.90;;;;;;6238245;23;20207;-83
2023/09/24 03:10:52;;;;;;;10.40;10.10;;;8.30;99.90;;;;;;6238616;23;20226;-82
2023/09/24 03:13:20;;;;;;;10.43;10.13;;;8.30;99.90;;;;;;6237378;23;20195;-82
2023/09/24 03:15:48;;;;;;;10.37;10.07;;;8.30;99.90;;;;;;6237558;23;20275;-83
2023/09/24 03:18:15;;;;;;;10.47;10.17;;;8.30;99.90;;;;;;6237198;23;20195;-82
2023/09/24 03:20:45;;;;;;;10.50;10.20;;;8.30;99.90;;;;;;6237623;23;20199;-83
2023/09/24 03:23:12;;;;;;;10.60;10.30;;;8.30;99.90;;;;;;6237293;23;20250;-82
2023/09/24 03:25:41;;;;;;;10.57;10.27;;;8.30;99.90;;;;;;6237240;23;20269;-82
2023/09/24 03:28:08;;;;;;;10.60;10.30;;;8.20;99.90;;;;;;6237007;23;20250;-83
2023/09/24 03:30:35;;;;;;;10.50;10.20;;;8.20;99.90;;;;;;6237686;23;20230;-83
2023/09/24 03:33:03;;;;;;;10.63;10.33;;;8.10;99.90;;;;;;6236786;23;20183;-83
2023/09/24 03:35:31;;;;;;;10.63;10.33;;;8.10;99.90;;;;;;6236782;23;20209;-82
2023/09/24 03:37:59;;;;;;;10.47;10.17;;;8.00;99.90;;;;;;6238200;23;20198;-82
2023/09/24 03:40:28;;;;;;;10.53;10.23;;;8.00;99.90;;;;;;6237865;23;20206;-83
2023/09/24 03:42:56;;;;;;;10.60;10.30;;;7.90;99.90;;;;;;6238766;23;20206;-83
2023/09/24 03:45:24;;;;;;;10.50;10.20;;;7.90;99.90;;;;;;6240665;23;20191;-83
2023/09/24 03:47:52;;;;;;;10.53;10.23;;;7.90;99.90;;;;;;6239673;23;20198;-82
2023/09/24 03:50:19;;;;;;;10.70;10.40;;;7.90;99.90;;;;;;6239593;23;20210;-82
2023/09/24 03:52:50;;;;;;;10.60;10.30;;;7.90;99.90;;;;;;6237612;23;20195;-80
2023/09/24 03:55:19;;;;;;;10.57;10.27;;;7.90;99.90;;;;;;6237314;23;20210;-80
2023/09/24 03:57:47;;;;;;;10.50;10.20;;;7.80;99.90;;;;;;6238853;23;20209;-82
2023/09/24 04:00:18;;;;;;;10.60;10.30;;;7.80;99.90;;;;;;6238882;22;20294;-83
2023/09/24 04:02:47;;;;;;;10.40;10.10;;;7.80;99.90;;;;;;6240120;23;20195;-82
2023/09/24 04:05:17;;;;;;;10.30;10.00;;;7.80;99.90;;;;;;6243660;23;20199;-83
2023/09/24 04:07:46;;;;;;;10.37;10.07;;;7.90;99.90;;;;;;6243693;23;20191;-83
2023/09/24 04:10:14;;;;;;;10.60;10.30;;;7.90;99.90;;;;;;6240417;23;20206;-82
2023/09/24 04:12:43;;;;;;;10.50;10.20;;;7.90;99.90;;;;;;6243480;23;20226;-83
2023/09/24 04:15:11;;;;;;;10.50;10.20;;;7.90;99.90;;;;;;6245193;23;20199;-82
2023/09/24 04:17:40;;;;;;;10.30;10.00;;;7.90;99.90;;;;;;6243778;23;20249;-83
2023/09/24 04:20:14;;;;;;;10.30;10.00;;;7.80;99.90;;;;;;6242040;23;20270;-83
2023/09/24 04:22:41;;;;;;;10.40;10.10;;;7.70;99.90;;;;;;6242250;23;20183;-83
2023/09/24 04:25:09;;;;;;;10.30;10.00;;;7.70;99.90;;;;;;6241217;23;20259;-83
2023/09/24 04:27:38;;;;;;;10.40;10.10;;;7.70;99.90;;;;;;6239775;23;21006;-83
2023/09/24 04:30:10;;;;;;;10.23;9.93;;;7.70;99.90;;;;;;6241545;23;20279;-82
2023/09/24 04:32:39;;;;;;;10.20;9.90;;;7.70;99.90;;;;;;6239856;23;20197;-83
2023/09/24 04:35:09;;;;;;;10.27;9.97;;;7.70;99.90;;;;;;6248392;23;20210;-83
2023/09/24 04:37:37;;;;;;;10.30;10.00;;;7.70;99.90;;;;;;6249375;22;20186;-82
2023/09/24 04:40:06;;;;;;;10.33;10.03;;;7.70;99.90;;;;;;6248901;22;20205;-82
2023/09/24 04:42:34;;;;;;;10.20;9.90;;;7.70;99.90;;;;;;6243021;23;20205;-83
2023/09/24 04:45:02;;;;;;;10.37;10.07;;;7.70;99.90;;;;;;6241476;23;20221;-83
2023/09/24 04:47:29;;;;;;;10.30;10.00;;;7.60;99.90;;;;;;6241057;23;20226;-83
2023/09/24 04:49:57;;;;;;;10.33;10.03;;;7.60;99.90;;;;;;6240366;23;20199;-83
2023/09/24 04:52:24;;;;;;;11.00;10.60;;;7.50;99.90;;;;;;6242061;23;20215;-83
2023/09/24 04:54:53;;;;;;;10.60;10.30;;;7.40;99.90;;;;;;6241096;23;20253;-83
2023/09/24 04:57:21;;;;;;;10.93;10.53;;;7.40;99.90;;;;;;6240145;23;20199;-83
2023/09/24 04:59:53;;;;;;;10.80;10.43;;;7.40;99.90;;;;;;6239391;22;20214;-84
2023/09/24 05:02:21;;;;;;;10.70;10.40;;;7.40;99.90;;;;;;6238470;23;20187;-82
2023/09/24 05:04:48;;;;;;;10.63;10.33;;;7.40;99.90;;;;;;6238927;23;20195;-83
2023/09/24 05:07:18;;;;;;;10.60;10.30;;;7.30;99.90;;;;;;6238867;23;20209;-82
2023/09/24 05:09:46;;;;;;;10.60;10.30;;;7.30;99.90;;;;;;6238938;23;20218;-81
2023/09/24 05:12:13;;;;;;;10.47;10.17;;;7.30;99.90;;;;;;6237176;23;20203;-80
2023/09/24 05:14:41;;;;;;;10.40;10.10;;;7.30;99.90;;;;;;6239502;23;20214;-81
2023/09/24 05:17:08;;;;;;;10.60;10.30;;;7.30;99.90;;;;;;6238720;23;20207;-82
2023/09/24 05:19:35;;;;;;;10.53;10.23;;;7.30;99.90;;;;;;6238140;23;20199;-81
2023/09/24 05:22:03;;;;;;;10.50;10.20;;;7.30;99.90;;;;;;6238564;23;20207;-81
2023/09/24 05:24:33;;;;;;;10.40;10.10;;;7.40;99.90;;;;;;6238806;23;20199;-80
2023/09/24 05:27:00;;;;;;;10.20;9.90;;;7.40;99.90;;;;;;6238373;23;20202;-81
2023/09/24 05:29:27;;;;;;;10.27;9.97;;;7.40;99.90;;;;;;6238774;23;20207;-81
2023/09/24 05:31:55;;;;;;;10.20;9.90;;;7.40;99.90;;;;;;6238349;23;20210;-82
2023/09/24 05:34:22;;;;;;;10.33;10.03;;;7.30;99.90;;;;;;6243798;23;20202;-81
2023/09/24 05:36:52;;;;;;;10.27;9.97;;;7.40;99.90;;;;;;6246120;23;20183;-81
2023/09/24 05:39:19;;;;;;;10.20;9.90;;;7.30;99.90;;;;;;6246835;23;20203;-81
2023/09/24 05:41:48;;;;;;;10.13;9.83;;;7.20;99.90;;;;;;6245524;23;20199;-81
2023/09/24 05:44:17;;;;;;;10.20;9.90;;;7.20;99.90;;;;;;6243809;23;20199;-82
2023/09/24 05:46:44;;;;;;;10.27;9.97;;;7.20;99.90;;;;;;6242729;23;20191;-80
2023/09/24 05:49:11;;;;;;;10.17;9.87;;;7.20;99.90;;;;;;6241268;23;20238;-81
2023/09/24 05:51:38;;;;;;;10.10;9.80;;;7.20;99.90;;;;;;6240611;23;20226;-81
2023/09/24 05:54:07;;;;;;;10.07;9.77;;;7.30;99.90;;;;;;6240644;23;20191;-81
2023/09/24 05:56:34;;;;;;;9.87;9.57;;;7.30;99.90;;;;;;6239598;23;20203;-81
2023/09/24 05:59:02;;;;;;;9.83;9.53;;;7.30;99.90;;;;;;6238742;23;20195;-80
2023/09/24 06:01:30;;;;;;;9.97;9.67;;;7.30;99.90;;;;;;6237886;23;20187;-81
2023/09/24 06:03:57;;;;;;;10.00;9.70;;;7.40;99.90;;;;;;6238445;23;20195;-81
2023/09/24 06:06:24;;;;;;;9.97;9.67;;;7.40;99.90;;;;;;6240230;23;20201;-81
2023/09/24 06:08:54;;;;;;;9.97;9.67;;;7.50;99.90;;;;;;6240786;23;20226;-83
2023/09/24 06:11:21;;;;;;;9.90;9.60;;;7.50;99.90;;;;;;6238573;23;20199;-83
2023/09/24 06:13:48;;;;;;;9.70;9.40;;;7.60;99.90;;;;;;6238207;23;20198;-81
2023/09/24 06:16:16;;;;;;;9.90;9.60;;;7.70;99.90;;;;;;6237415;23;20211;-81
2023/09/24 06:18:44;;;;;;;10.00;9.70;;;7.80;99.90;;;;;;6236982;23;20246;-82
2023/09/24 06:21:16;;;;;;;10.10;9.80;;;7.80;99.90;;;;;;6237394;23;20199;-81
2023/09/24 06:23:43;;;;;;;10.20;9.90;;;7.80;99.90;;;;;;6237580;23;20191;-81
2023/09/24 06:26:10;;;;;;;9.80;9.50;;;7.90;99.90;;;;;;6236933;23;20202;-81
2023/09/24 06:28:37;;;;;;;10.10;9.80;;;8.00;99.90;;;;;;6237386;23;20191;-81
2023/09/24 06:31:05;;;;;;;10.00;9.70;;;8.00;99.90;;;;;;6238315;23;20214;-81
2023/09/24 06:33:34;;;;;;;9.80;9.50;;;8.10;99.90;;;;;;6239386;23;20191;-82
2023/09/24 06:36:03;;;;;;;10.00;9.70;;;8.10;99.90;;;;;;6239165;23;20198;-82
2023/09/24 06:38:32;;;;;;;9.90;9.60;;;8.30;99.90;;;;;;6239069;23;20219;-81
2023/09/24 06:41:00;;;;;;;9.63;9.33;;;8.30;99.90;;;;;;6238757;23;20199;-82
2023/09/24 06:43:27;;;;;;;9.87;9.57;;;8.40;99.90;;;;;;6238089;23;20195;-81
2023/09/24 06:45:55;;;;;;;9.70;9.40;;;8.50;99.90;;;;;;6238449;23;20215;-81
2023/09/24 06:48:23;;;;;;;9.47;9.17;;;8.50;99.90;;;;;;6237932;23;20187;-80
2023/09/24 06:50:53;;;;;;;9.57;9.27;;;8.60;99.90;;;;;;6239764;23;20195;-80
2023/09/24 06:53:21;;;;;;;9.57;9.27;;;8.70;99.90;;;;;;6240430;23;20218;-80
2023/09/24 06:55:48;;;;;;;9.60;9.30;;;8.90;99.90;;;;;;6239921;23;20194;-81
2023/09/24 06:58:15;;;;;;;9.60;9.30;;;8.90;99.90;;;;;;6238016;23;20215;-81
2023/09/24 07:00:42;;;;;;;9.67;9.37;;;9.00;99.90;;;;;;6240176;23;20207;-81
2023/09/24 07:03:10;;;;;;;9.20;8.90;;;9.10;99.90;;;;;;6240675;23;20222;-81
2023/09/24 07:05:37;;;;;;;9.53;9.23;;;9.20;99.90;;;;;;6240503;23;20195;-80
2023/09/24 07:08:06;;;;;;;9.70;9.40;;;9.20;99.90;;;;;;6239924;23;20195;-80
2023/09/24 07:10:33;;;;;;;9.53;9.23;;;9.30;99.90;;;;;;6239651;23;20210;-80
2023/09/24 07:13:02;;;;;;;9.70;9.40;;;9.30;99.90;;;;;;6238809;23;20191;-80
2023/09/24 07:15:29;;;;;;;9.50;9.20;;;9.40;99.90;;;;;;6239107;23;20195;-80
2023/09/24 07:17:57;;;;;;;9.73;9.43;;;9.50;99.90;;;;;;6238464;23;20198;-81
2023/09/24 07:20:24;;;;;;;9.80;9.50;;;9.60;99.90;;;;;;6238111;23;20187;-81
2023/09/24 07:22:51;;;;;;;9.80;9.50;;;9.70;99.90;;;;;;6237660;23;20195;-81
2023/09/24 07:25:20;;;;;;;9.80;9.50;;;9.80;99.90;;;;;;6238092;23;20191;-81
2023/09/24 07:27:48;;;;;;;9.70;9.40;;;10.00;99.90;;;;;;6209774;23;20240;-81
2023/09/24 07:30:16;;;;;;;9.50;9.20;;;10.10;99.90;;;;;;6214651;23;20196;-80
2023/09/24 07:32:43;;;;;;;9.70;9.40;;;10.30;99.90;;;;;;6212723;23;20195;-80
2023/09/24 07:35:11;;;;;;;9.80;9.50;;;10.50;99.90;;;;;;6209633;23;20203;-80
2023/09/24 07:37:39;;;;;;;9.77;9.47;;;10.60;99.90;;;;;;6209619;23;20196;-82
2023/09/24 07:40:11;;;;;;;9.80;9.50;;;10.70;99.90;;;;;;6209834;23;20192;-81
2023/09/24 07:42:39;;;;;;;9.87;9.57;;;10.80;99.90;;;;;;6208024;23;20219;-82
2023/09/24 07:45:08;;;;;;;9.90;9.60;;;11.00;99.90;;;;;;6207949;23;20199;-82
2023/09/24 07:47:35;;;;;;;9.57;9.27;;;11.10;99.90;;;;;;6207151;23;20206;-81
2023/09/24 07:50:02;;;;;;;9.87;9.57;;;11.20;99.90;;;;;;6207622;23;20242;-81
2023/09/24 07:52:30;;;;;;;10.10;9.80;;;11.30;99.90;;;;;;6208558;23;20203;-81
2023/09/24 07:54:57;;;;;;;10.00;9.70;;;11.40;99.90;;;;;;6208510;23;20254;-81
2023/09/24 07:57:24;;;;;;;9.63;9.33;;;11.50;99.90;;;;;;6206129;23;20242;-82
2023/09/24 10:52:27;;;;;;;9.70;9.40;;;22.50;99.90;;;;;;6248504;22;20213;-84
2023/09/24 14:02:25;;;;;;;10.10;9.80;;;27.70;99.90;;;;;;6231966;22;20211;-81
2023/09/24 14:04:52;;;;;;;10.20;9.90;;;27.90;99.90;;;;;;6237917;23;20201;-82
2023/09/24 14:07:19;;;;;;;10.45;10.15;;;27.90;99.90;;;;;;6236554;23;20179;-82
2023/09/24 14:12:33;;;;;;;10.10;9.80;;;27.40;99.90;;;;;;6241574;22;20194;-82
2023/09/24 14:15:01;;;;;;;10.20;9.90;;;26.10;99.90;;;;;;6245808;22;20191;-81
2023/09/24 14:17:30;;;;;;;10.15;9.85;;;25.60;99.90;;;;;;6247320;22;20226;-82
2023/09/24 14:19:58;;;;;;;10.00;9.70;;;25.20;99.90;;;;;;6242399;22;20199;-82
2023/09/24 14:22:25;;;;;;;10.00;9.70;;;24.40;99.90;;;;;;6237306;22;20202;-81
2023/09/24 14:24:53;;;;;;;9.90;9.60;;;23.70;99.90;;;;;;6237016;22;20195;-81
2023/09/24 14:27:23;;;;;;;9.70;9.40;;;23.80;99.90;;;;;;6236588;22;20195;-82
2023/09/24 14:29:51;;;;;;;9.98;9.68;;;23.80;99.90;;;;;;6235782;22;20191;-81
2023/09/24 14:32:21;;;;;;;9.95;9.65;;;23.20;99.90;;;;;;6235727;23;20206;-82
2023/09/24 14:34:49;;;;;;;9.95;9.65;;;22.80;99.90;;;;;;6236260;22;20257;-81
2023/09/24 14:37:17;;;;;;;9.93;9.63;;;22.80;99.90;;;;;;6237683;22;20203;-82
2023/09/24 14:39:44;;;;;;;9.98;9.68;;;23.00;99.90;;;;;;6237589;22;20214;-82
2023/09/24 14:42:12;;;;;;;9.98;9.68;;;23.20;99.90;;;;;;6236564;22;20202;-81
2023/09/24 14:44:42;;;;;;;9.80;9.50;;;23.30;99.90;;;;;;6236548;23;20282;-81
2023/09/24 14:47:09;;;;;;;9.80;9.50;;;23.50;99.90;;;;;;6237263;22;20206;-82
2023/09/24 14:49:37;;;;;;;9.63;9.32;;;23.80;99.90;;;;;;6237354;22;20191;-82
2023/09/24 14:52:05;;;;;;;9.40;9.10;;;23.90;99.90;;;;;;6237780;22;20198;-80
2023/09/24 14:54:34;;;;;;;9.70;9.40;;;23.90;99.90;;;;;;6238406;22;20199;-81
2023/09/24 14:57:01;;;;;;;9.77;9.48;;;23.70;99.90;;;;;;6239010;22;20214;-81
2023/09/24 14:59:28;;;;;;;9.60;9.30;;;23.50;99.90;;;;;;6237475;22;20281;-81
2023/09/24 15:01:55;;;;;;;9.40;9.10;;;23.60;99.90;;;;;;6237509;22;20211;-81
2023/09/24 15:04:22;;;;;;;9.60;9.30;;;23.60;99.90;;;;;;6236715;22;20255;-81
2023/09/24 15:06:49;;;;;;;9.70;9.40;;;23.60;99.90;;;;;;6237589;23;20195;-81
2023/09/24 15:09:18;;;;;;;9.40;9.10;;;23.40;99.90;;;;;;6237153;23;20203;-81
2023/09/24 15:11:45;;;;;;;9.65;9.35;;;23.50;99.90;;;;;;6238927;22;20199;-80
2023/09/24 15:14:12;;;;;;;9.80;9.50;;;23.80;99.90;;;;;;6237465;22;20201;-81
2023/09/24 15:16:40;;;;;;;9.85;9.55;;;24.30;99.90;;;;;;6238120;22;20258;-81
2023/09/24 15:19:07;;;;;;;10.05;9.75;;;24.70;99.90;;;;;;6238170;22;20198;-80
2023/09/24 15:21:34;;;;;;;10.25;9.95;;;25.20;99.90;;;;;;6236486;22;20238;-80
2023/09/24 15:24:01;;;;;;;10.35;10.05;;;25.60;99.90;;;;;;6236054;22;20191;-81
2023/09/24 15:26:29;;;;;;;10.20;9.90;;;26.10;99.90;;;;;;6236075;23;20203;-81
2023/09/24 15:28:57;;;;;;;9.98;9.68;;;26.60;99.90;;;;;;6237193;23;20206;-81
2023/09/24 15:31:24;;;;;;;9.88;9.57;;;27.00;99.90;;;;;;6235820;22;20202;-81
2023/09/24 15:33:51;;;;;;;9.50;9.20;;;27.20;99.90;;;;;;6236456;23;20221;-81
2023/09/24 15:36:18;;;;;;;9.70;9.40;;;27.60;99.90;;;;;;6235530;22;20183;-80
2023/09/24 15:38:45;;;;;;;9.60;9.30;;;28.00;99.90;;;;;;6236727;22;20271;-81
2023/09/24 15:41:13;;;;;;;9.70;9.40;;;28.10;99.90;;;;;;6236435;22;20221;-81
2023/09/24 15:43:42;;;;;;;9.88;9.57;;;28.40;99.90;;;;;;6236348;22;20191;-81
2023/09/24 15:46:14;;;;;;;9.85;9.55;;;28.40;99.90;;;;;;6235585;22;20199;-81
2023/09/24 15:48:42;;;;;;;9.70;9.40;;;28.70;99.90;;;;;;6236891;22;20199;-81
2023/09/24 15:51:15;;;;;;;9.80;9.50;;;28.90;99.90;;;;;;6236384;22;20198;-81
2023/09/24 15:53:42;;;;;;;9.70;9.40;;;28.90;99.90;;;;;;6235765;23;20190;-81
2023/09/24 15:56:09;;;;;;;9.80;9.50;;;28.40;99.90;;;;;;6236564;22;20199;-82
2023/09/24 15:58:36;;;;;;;9.73;9.43;;;28.20;99.90;;;;;;6235917;22;20202;-81
2023/09/24 16:01:05;;;;;;;9.75;9.45;;;28.10;99.90;;;;;;6236430;22;20209;-81
2023/09/24 16:03:32;;;;;;;9.68;9.38;;;28.00;99.90;;;;;;6236324;22;20190;-81
2023/09/24 16:06:00;;;;;;;9.90;9.60;;;28.00;99.90;;;;;;6236219;23;20208;-82
2023/09/24 16:08:27;;;;;;;10.18;9.88;;;27.60;99.90;;;;;;6236336;22;20191;-81
2023/09/24 16:10:54;;;;;;;9.80;9.50;;;27.10;99.90;;;;;;6237305;22;20198;-81
2023/09/24 16:13:21;;;;;;;9.73;9.43;;;26.80;99.90;;;;;;6238044;22;20191;-81
2023/09/24 16:15:49;;;;;;;10.00;9.70;;;26.70;99.90;;;;;;6240214;22;20191;-81
2023/09/24 16:18:18;;;;;;;9.90;9.60;;;26.70;99.90;;;;;;6238695;22;20215;-81
2023/09/24 16:20:45;;;;;;;9.80;9.50;;;26.50;99.90;;;;;;6239173;22;20195;-81
2023/09/24 16:23:13;;;;;;;10.20;9.90;;;26.20;99.90;;;;;;6237689;22;20191;-81
2023/09/24 16:25:40;;;;;;;10.20;9.90;;;25.90;99.90;;;;;;6237031;22;20246;-81
2023/09/24 16:28:08;;;;;;;10.10;9.80;;;25.50;99.90;;;;;;6237659;22;20191;-81
2023/09/24 16:30:35;;;;;;;10.00;9.70;;;25.00;99.90;;;;;;6236984;22;20206;-81
2023/09/24 16:33:02;;;;;;;9.90;9.60;;;24.60;99.90;;;;;;6238961;22;20254;-81
2023/09/24 16:35:31;;;;;;;10.07;9.77;;;24.20;99.90;;;;;;6242240;22;20193;-82
2023/09/24 16:37:58;;;;;;;10.00;9.70;;;23.80;99.90;;;;;;6242873;23;20206;-81
2023/09/24 16:40:25;;;;;;;10.10;9.80;;;23.40;99.90;;;;;;6242799;22;20191;-80
2023/09/24 16:42:54;;;;;;;10.20;9.90;;;23.10;99.90;;;;;;6240952;22;20246;-81
2023/09/24 16:45:21;;;;;;;9.80;9.50;;;22.70;99.90;;;;;;6238460;23;20207;-81
2023/09/24 16:47:48;;;;;;;9.65;9.35;;;22.40;99.90;;;;;;6238930;22;20245;-81
2023/09/24 16:50:15;;;;;;;9.90;9.60;;;22.10;99.90;;;;;;6239542;22;20198;-81
2023/09/24 16:52:44;;;;;;;9.90;9.60;;;21.90;99.90;;;;;;6239775;22;20198;-81
2023/09/24 16:55:11;;;;;;;10.07;9.77;;;21.70;99.90;;;;;;6239190;22;20250;-80
2023/09/24 16:57:38;;;;;;;10.00;9.70;;;21.40;99.90;;;;;;6238405;23;20207;-83
2023/09/24 17:00:10;;;;;;;10.10;9.80;;;21.10;99.90;;;;;;6238737;22;20191;-81
2023/09/24 17:02:37;;;;;;;10.13;9.82;;;21.00;99.90;;;;;;6239019;22;20262;-81
2023/09/24 17:05:06;;;;;;;10.27;9.98;;;20.80;99.90;;;;;;6243850;22;20187;-81
2023/09/24 17:07:33;;;;;;;10.10;9.80;;;20.60;99.90;;;;;;6240986;22;20191;-80
2023/09/24 17:10:02;;;;;;;10.20;9.90;;;20.40;99.90;;;;;;6240701;22;20223;-82
2023/09/24 17:12:29;;;;;;;10.20;9.90;;;20.20;99.90;;;;;;6240251;22;20199;-82
2023/09/24 17:14:56;;;;;;;9.98;9.68;;;20.00;99.90;;;;;;6242924;22;20198;-82
2023/09/24 17:17:24;;;;;;;10.00;9.70;;;19.70;99.90;;;;;;6240533;22;20199;-82
2023/09/24 17:19:51;;;;;;;10.23;9.93;;;19.50;99.90;;;;;;6240051;22;20213;-83
2023/09/24 17:22:18;;;;;;;10.15;9.85;;;19.40;99.90;;;;;;6243484;22;20190;-81
2023/09/24 17:24:45;;;;;;;10.05;9.75;;;19.20;99.90;;;;;;6240843;22;20230;-82
2023/09/24 17:27:14;;;;;;;9.93;9.63;;;19.10;99.90;;;;;;6240127;22;20231;-82
2023/09/24 17:29:41;;;;;;;10.30;10.00;;;19.00;99.90;;;;;;6239048;23;20207;-82
2023/09/24 17:32:09;;;;;;;10.60;10.30;;;18.80;99.90;;;;;;6237653;22;20237;-81
2023/09/24 17:34:36;;;;;;;10.05;9.75;;;18.70;99.90;;;;;;6239231;22;20253;-81
2023/09/24 17:37:03;;;;;;;10.15;9.85;;;18.60;99.90;;;;;;6238637;23;20214;-82
2023/09/24 17:39:32;;;;;;;9.90;9.60;;;18.50;99.90;;;;;;6238622;23;20214;-82
2023/09/24 17:42:00;;;;;;;9.80;9.50;;;18.40;99.90;;;;;;6238353;22;20233;-82
2023/09/24 17:44:28;;;;;;;9.82;9.52;;;18.30;99.90;;;;;;6239881;22;20218;-82
2023/09/24 17:46:56;;;;;;;9.95;9.65;;;18.20;99.90;;;;;;6243510;22;20175;-82
2023/09/24 17:49:23;;;;;;;9.93;9.63;;;18.00;99.90;;;;;;6243904;22;20187;-82
2023/09/24 17:51:50;;;;;;;10.02;9.73;;;17.90;99.90;;;;;;6241708;22;20199;-82
2023/09/24 17:54:17;;;;;;;10.10;9.80;;;17.80;99.90;;;;;;6240343;22;20187;-82
2023/09/24 17:56:45;;;;;;;10.20;9.90;;;17.80;99.90;;;;;;6240413;22;20199;-82
2023/09/24 17:59:12;;;;;;;10.27;9.98;;;17.60;99.90;;;;;;6238461;22;20214;-81
2023/09/24 18:01:41;;;;;;;10.40;10.10;;;17.50;99.90;;;;;;6237083;22;20218;-82
2023/09/24 18:04:08;;;;;;;10.20;9.90;;;17.40;99.90;;;;;;6238856;22;20198;-82
2023/09/24 18:06:35;;;;;;;10.50;10.20;;;17.30;99.90;;;;;;6238760;22;20198;-82
2023/09/24 18:09:04;;;;;;;10.48;10.18;;;17.20;99.90;;;;;;6238935;22;20253;-82
2023/09/24 18:11:31;;;;;;;10.70;10.40;;;17.20;99.90;;;;;;6238215;22;20199;-82
2023/09/24 18:13:58;;;;;;;10.70;10.40;;;17.00;99.90;;;;;;6238802;22;20198;-82
2023/09/24 18:16:26;;;;;;;10.50;10.20;;;16.90;99.90;;;;;;6242007;22;20195;-82
2023/09/24 18:18:54;;;;;;;10.50;10.20;;;16.80;99.90;;;;;;6238893;23;20217;-82
2023/09/24 18:21:22;;;;;;;10.35;10.05;;;16.70;99.90;;;;;;6239382;22;20226;-83
2023/09/24 18:23:50;;;;;;;10.35;10.05;;;16.70;99.90;;;;;;6240622;22;20199;-82
2023/09/24 18:26:18;;;;;;;10.38;10.07;;;16.50;99.90;;;;;;6240245;22;20259;-82
2023/09/24 18:28:46;;;;;;;10.48;10.18;;;16.40;99.90;;;;;;6245878;22;20202;-82
2023/09/24 18:31:14;;;;;;;10.15;9.85;;;16.30;99.90;;;;;;6248935;22;20207;-82
2023/09/24 18:33:41;;;;;;;10.13;9.82;;;16.30;99.90;;;;;;6248028;22;20180;-82
2023/09/24 18:36:13;;;;;;;10.20;9.90;;;16.20;99.90;;;;;;6241517;22;20191;-82
2023/09/24 18:38:40;;;;;;;10.30;10.00;;;16.00;99.90;;;;;;6240548;23;20191;-83
2023/09/24 18:41:12;;;;;;;10.10;9.80;;;15.90;99.90;;;;;;6239787;22;20203;-82
2023/09/24 18:43:39;;;;;;;10.10;9.80;;;15.80;99.90;;;;;;6239599;22;20183;-82
2023/09/24 18:46:06;;;;;;;10.20;9.90;;;15.70;99.90;;;;;;6239369;22;20209;-82
2023/09/24 18:48:35;;;;;;;10.10;9.80;;;15.60;99.90;;;;;;6240278;22;20199;-82
2023/09/24 18:51:12;;;;;;;10.43;10.13;;;15.50;99.90;;;;;;6238600;22;20206;-82
2023/09/24 18:53:40;;;;;;;10.20;9.90;;;15.40;99.90;;;;;;6238715;22;20202;-82
2023/09/24 18:56:07;;;;;;;9.88;9.57;;;15.30;99.90;;;;;;6239806;22;20206;-83
2023/09/24 18:58:34;;;;;;;10.10;9.80;;;15.30;99.90;;;;;;6238836;22;20261;-82
2023/09/24 19:01:07;;;;;;;9.70;9.40;;;15.20;99.90;;;;;;6239325;22;20202;-81
2023/09/24 19:03:34;;;;;;;9.90;9.60;;;15.10;99.90;;;;;;6237850;22;20270;-82
2023/09/24 19:06:06;;;;;;;10.02;9.73;;;15.10;99.90;;;;;;6238578;22;20196;-81
2023/09/24 19:08:35;;;;;;;10.00;9.70;;;15.00;99.90;;;;;;6237796;23;20198;-80
2023/09/24 19:11:02;;;;;;;10.00;9.70;;;14.90;99.90;;;;;;6238355;22;20277;-82
2023/09/24 19:13:30;;;;;;;9.80;9.50;;;14.90;99.90;;;;;;6239138;22;20203;-80
2023/09/24 19:16:03;;;;;;;9.60;9.30;;;14.80;99.90;;;;;;6237951;22;20198;-82
2023/09/24 19:18:31;;;;;;;9.43;9.13;;;14.80;99.90;;;;;;6237440;22;20247;-83
2023/09/24 19:20:59;;;;;;;9.50;9.20;;;14.70;99.90;;;;;;6237346;22;20203;-82
2023/09/24 19:23:26;;;;;;;9.43;9.13;;;14.60;99.90;;;;;;6236893;22;20190;-83
2023/09/24 19:25:55;;;;;;;9.70;9.40;;;14.60;99.90;;;;;;6237380;22;20217;-82
2023/09/24 19:28:22;;;;;;;9.80;9.50;;;14.50;99.90;;;;;;6237598;22;20191;-82
2023/09/24 19:30:49;;;;;;;9.90;9.60;;;14.40;99.90;;;;;;6237762;22;20209;-82
2023/09/24 19:33:16;;;;;;;9.57;9.27;;;14.40;99.90;;;;;;6239038;22;20202;-81
2023/09/24 19:35:43;;;;;;;9.67;9.37;;;14.30;99.90;;;;;;6238748;22;20201;-82
2023/09/24 19:38:10;;;;;;;9.80;9.50;;;14.20;99.90;;;;;;6238488;22;20199;-82
2023/09/24 19:40:38;;;;;;;9.80;9.50;;;14.10;99.90;;;;;;6236326;22;20215;-82
2023/09/24 19:43:06;;;;;;;9.97;9.67;;;14.10;99.90;;;;;;6237667;22;20202;-82
2023/09/24 19:45:33;;;;;;;10.40;10.10;;;14.00;99.90;;;;;;6238032;22;20195;-82
2023/09/24 19:48:01;;;;;;;9.90;9.60;;;13.90;99.90;;;;;;6238728;22;20195;-81
2023/09/24 19:50:28;;;;;;;9.93;9.63;;;13.80;99.90;;;;;;6237693;22;20222;-84
2023/09/24 19:52:56;;;;;;;10.00;9.70;;;13.70;99.90;;;;;;6236728;22;20199;-80
2023/09/24 19:55:23;;;;;;;9.90;9.60;;;13.70;99.90;;;;;;6238304;22;20195;-82
2023/09/24 19:57:50;;;;;;;9.77;9.47;;;13.60;99.90;;;;;;6238145;22;20191;-82
2023/09/24 20:00:19;;;;;;;9.73;9.43;;;13.60;99.90;;;;;;6237825;22;20261;-81
